sensor_id;sensor_type;location;lat;lon;timestamp;P1;durP1;ratioP1;P2;durP2;ratioP2
75429;SDS011;64127;51.488;5.462;2022-11-21T00:00:06;6.93;;;3.20;;
75429;SDS011;64127;51.488;5.462;2022-11-21T00:02:39;6.03;;;3.20;;
75429;SDS011;64127;51.488;5.462;2022-11-21T00:05:11;9.07;;;3.37;;
75429;SDS011;64127;51.488;5.462;2022-11-21T00:07:42;6.00;;;3.37;;
75429;SDS011;64127;51.488;5.462;2022-11-21T00:10:16;10.10;;;4.13;;
75429;SDS011;64127;51.488;5.462;2022-11-21T00:12:52;7.70;;;3.50;;
75429;SDS011;64127;51.488;5.462;2022-11-21T00:15:26;6.97;;;3.77;;
75429;SDS011;64127;51.488;5.462;2022-11-21T00:18:00;10.03;;;3.80;;
75429;SDS011;64127;51.488;5.462;2022-11-21T00:20:34;10.50;;;3.73;;
75429;SDS011;64127;51.488;5.462;2022-11-21T00:23:07;9.90;;;3.60;;
75429;SDS011;64127;51.488;5.462;2022-11-21T00:25:40;8.97;;;4.03;;
75429;SDS011;64127;51.488;5.462;2022-11-21T00:28:12;9.57;;;4.40;;
75429;SDS011;64127;51.488;5.462;2022-11-21T00:30:44;9.53;;;4.33;;
75429;SDS011;64127;51.488;5.462;2022-11-21T00:33:16;10.97;;;4.30;;
75429;SDS011;64127;51.488;5.462;2022-11-21T00:35:48;9.73;;;4.10;;
75429;SDS011;64127;51.488;5.462;2022-11-21T00:38:20;8.33;;;3.30;;
75429;SDS011;64127;51.488;5.462;2022-11-21T00:40:54;7.93;;;3.73;;
75429;SDS011;64127;51.488;5.462;2022-11-21T00:43:26;7.30;;;3.10;;
75429;SDS011;64127;51.488;5.462;2022-11-21T00:45:58;11.17;;;3.90;;
75429;SDS011;64127;51.488;5.462;2022-11-21T00:48:33;10.10;;;3.10;;
75429;SDS011;64127;51.488;5.462;2022-11-21T00:51:05;14.07;;;3.73;;
75429;SDS011;64127;51.488;5.462;2022-11-21T00:53:36;9.50;;;3.30;;
75429;SDS011;64127;51.488;5.462;2022-11-21T00:56:08;7.43;;;3.23;;
75429;SDS011;64127;51.488;5.462;2022-11-21T00:58:40;10.93;;;3.07;;
75429;SDS011;64127;51.488;5.462;2022-11-21T01:01:14;10.83;;;3.50;;
75429;SDS011;64127;51.488;5.462;2022-11-21T01:03:46;9.17;;;3.63;;
75429;SDS011;64127;51.488;5.462;2022-11-21T01:06:19;10.00;;;3.57;;
75429;SDS011;64127;51.488;5.462;2022-11-21T01:08:51;9.90;;;3.67;;
75429;SDS011;64127;51.488;5.462;2022-11-21T01:11:23;11.47;;;4.17;;
75429;SDS011;64127;51.488;5.462;2022-11-21T01:13:55;11.17;;;3.83;;
75429;SDS011;64127;51.488;5.462;2022-11-21T01:16:28;8.50;;;3.47;;
75429;SDS011;64127;51.488;5.462;2022-11-21T01:19:00;8.93;;;3.30;;
75429;SDS011;64127;51.488;5.462;2022-11-21T01:21:32;12.60;;;3.87;;
75429;SDS011;64127;51.488;5.462;2022-11-21T01:24:04;11.03;;;3.40;;
75429;SDS011;64127;51.488;5.462;2022-11-21T01:26:36;9.17;;;3.70;;
75429;SDS011;64127;51.488;5.462;2022-11-21T01:29:09;13.03;;;3.70;;
75429;SDS011;64127;51.488;5.462;2022-11-21T01:31:41;11.50;;;3.73;;
75429;SDS011;64127;51.488;5.462;2022-11-21T01:34:13;8.83;;;3.70;;
75429;SDS011;64127;51.488;5.462;2022-11-21T01:36:45;11.03;;;3.80;;
75429;SDS011;64127;51.488;5.462;2022-11-21T01:39:17;10.47;;;3.53;;
75429;SDS011;64127;51.488;5.462;2022-11-21T01:41:49;11.47;;;3.60;;
75429;SDS011;64127;51.488;5.462;2022-11-21T01:44:22;8.70;;;3.40;;
75429;SDS011;64127;51.488;5.462;2022-11-21T01:47:16;9.57;;;3.03;;
75429;SDS011;64127;51.488;5.462;2022-11-21T01:49:49;9.97;;;3.23;;
75429;SDS011;64127;51.488;5.462;2022-11-21T01:52:24;8.37;;;3.60;;
75429;SDS011;64127;51.488;5.462;2022-11-21T01:55:02;8.63;;;3.50;;
75429;SDS011;64127;51.488;5.462;2022-11-21T01:57:42;11.40;;;3.47;;
75429;SDS011;64127;51.488;5.462;2022-11-21T02:00:19;9.83;;;3.67;;
75429;SDS011;64127;51.488;5.462;2022-11-21T02:03:00;9.43;;;3.47;;
75429;SDS011;64127;51.488;5.462;2022-11-21T02:05:42;8.03;;;3.83;;
75429;SDS011;64127;51.488;5.462;2022-11-21T02:08:18;7.40;;;3.10;;
75429;SDS011;64127;51.488;5.462;2022-11-21T02:10:56;10.10;;;3.67;;
75429;SDS011;64127;51.488;5.462;2022-11-21T02:13:57;9.47;;;3.00;;
75429;SDS011;64127;51.488;5.462;2022-11-21T02:16:30;8.23;;;2.90;;
75429;SDS011;64127;51.488;5.462;2022-11-21T02:19:05;6.60;;;2.93;;
75429;SDS011;64127;51.488;5.462;2022-11-21T02:22:00;7.67;;;3.40;;
75429;SDS011;64127;51.488;5.462;2022-11-21T02:24:43;7.77;;;3.10;;
75429;SDS011;64127;51.488;5.462;2022-11-21T02:27:19;5.20;;;2.70;;
75429;SDS011;64127;51.488;5.462;2022-11-21T02:29:52;6.70;;;2.90;;
75429;SDS011;64127;51.488;5.462;2022-11-21T02:32:33;6.63;;;2.90;;
75429;SDS011;64127;51.488;5.462;2022-11-21T02:35:12;5.20;;;2.80;;
75429;SDS011;64127;51.488;5.462;2022-11-21T02:37:50;3.23;;;2.27;;
75429;SDS011;64127;51.488;5.462;2022-11-21T02:40:34;6.03;;;2.60;;
75429;SDS011;64127;51.488;5.462;2022-11-21T02:43:13;4.70;;;3.00;;
75429;SDS011;64127;51.488;5.462;2022-11-21T02:45:53;24.03;;;7.87;;
75429;SDS011;64127;51.488;5.462;2022-11-21T02:48:25;35.10;;;9.03;;
75429;SDS011;64127;51.488;5.462;2022-11-21T02:50:57;13.87;;;9.93;;
75429;SDS011;64127;51.488;5.462;2022-11-21T02:53:29;34.20;;;11.60;;
75429;SDS011;64127;51.488;5.462;2022-11-21T02:56:01;29.10;;;11.50;;
75429;SDS011;64127;51.488;5.462;2022-11-21T02:58:33;23.10;;;12.90;;
75429;SDS011;64127;51.488;5.462;2022-11-21T03:01:05;23.77;;;12.30;;
75429;SDS011;64127;51.488;5.462;2022-11-21T03:03:37;18.43;;;12.43;;
75429;SDS011;64127;51.488;5.462;2022-11-21T03:06:09;22.60;;;12.60;;
75429;SDS011;64127;51.488;5.462;2022-11-21T03:08:41;15.83;;;12.00;;
75429;SDS011;64127;51.488;5.462;2022-11-21T03:11:13;28.70;;;12.90;;
75429;SDS011;64127;51.488;5.462;2022-11-21T03:13:45;20.77;;;12.90;;
75429;SDS011;64127;51.488;5.462;2022-11-21T03:16:17;35.20;;;14.70;;
75429;SDS011;64127;51.488;5.462;2022-11-21T03:18:48;28.00;;;15.50;;
75429;SDS011;64127;51.488;5.462;2022-11-21T03:21:20;31.57;;;14.63;;
75429;SDS011;64127;51.488;5.462;2022-11-21T03:23:52;26.90;;;15.30;;
75429;SDS011;64127;51.488;5.462;2022-11-21T03:26:24;32.13;;;15.87;;
75429;SDS011;64127;51.488;5.462;2022-11-21T03:28:56;27.50;;;14.87;;
75429;SDS011;64127;51.488;5.462;2022-11-21T03:31:28;23.90;;;15.83;;
75429;SDS011;64127;51.488;5.462;2022-11-21T03:34:00;28.33;;;16.33;;
75429;SDS011;64127;51.488;5.462;2022-11-21T03:36:32;23.73;;;16.43;;
75429;SDS011;64127;51.488;5.462;2022-11-21T03:39:04;23.60;;;16.13;;
75429;SDS011;64127;51.488;5.462;2022-11-21T03:41:36;25.57;;;16.40;;
75429;SDS011;64127;51.488;5.462;2022-11-21T03:44:09;26.80;;;17.63;;
75429;SDS011;64127;51.488;5.462;2022-11-21T03:46:43;35.03;;;16.83;;
75429;SDS011;64127;51.488;5.462;2022-11-21T03:49:16;36.17;;;17.83;;
75429;SDS011;64127;51.488;5.462;2022-11-21T03:51:48;41.80;;;17.23;;
75429;SDS011;64127;51.488;5.462;2022-11-21T03:54:20;32.43;;;16.83;;
75429;SDS011;64127;51.488;5.462;2022-11-21T03:56:52;35.97;;;17.70;;
75429;SDS011;64127;51.488;5.462;2022-11-21T03:59:24;37.20;;;17.20;;
75429;SDS011;64127;51.488;5.462;2022-11-21T04:01:56;42.30;;;17.73;;
75429;SDS011;64127;51.488;5.462;2022-11-21T04:04:28;58.10;;;16.93;;
75429;SDS011;64127;51.488;5.462;2022-11-21T04:07:00;38.03;;;17.47;;
75429;SDS011;64127;51.488;5.462;2022-11-21T04:09:32;46.73;;;17.13;;
75429;SDS011;64127;51.488;5.462;2022-11-21T04:12:04;44.57;;;17.33;;
75429;SDS011;64127;51.488;5.462;2022-11-21T04:14:38;54.43;;;16.73;;
75429;SDS011;64127;51.488;5.462;2022-11-21T04:17:10;38.73;;;16.93;;
75429;SDS011;64127;51.488;5.462;2022-11-21T04:19:42;43.90;;;16.63;;
75429;SDS011;64127;51.488;5.462;2022-11-21T04:22:14;36.33;;;16.73;;
75429;SDS011;64127;51.488;5.462;2022-11-21T04:24:46;33.50;;;16.90;;
75429;SDS011;64127;51.488;5.462;2022-11-21T04:27:17;37.20;;;16.93;;
75429;SDS011;64127;51.488;5.462;2022-11-21T04:29:49;32.80;;;17.03;;
75429;SDS011;64127;51.488;5.462;2022-11-21T04:32:21;32.90;;;17.53;;
75429;SDS011;64127;51.488;5.462;2022-11-21T04:34:53;23.53;;;16.87;;
75429;SDS011;64127;51.488;5.462;2022-11-21T04:37:25;23.13;;;16.83;;
75429;SDS011;64127;51.488;5.462;2022-11-21T04:39:57;34.93;;;17.20;;
75429;SDS011;64127;51.488;5.462;2022-11-21T04:42:29;30.23;;;17.97;;
75429;SDS011;64127;51.488;5.462;2022-11-21T04:45:01;22.97;;;16.63;;
75429;SDS011;64127;51.488;5.462;2022-11-21T04:47:37;30.10;;;16.97;;
75429;SDS011;64127;51.488;5.462;2022-11-21T04:50:11;23.67;;;15.87;;
75429;SDS011;64127;51.488;5.462;2022-11-21T04:52:49;24.93;;;16.10;;
75429;SDS011;64127;51.488;5.462;2022-11-21T04:55:27;23.13;;;16.50;;
75429;SDS011;64127;51.488;5.462;2022-11-21T04:58:02;24.27;;;16.17;;
75429;SDS011;64127;51.488;5.462;2022-11-21T05:00:34;19.30;;;15.63;;
75429;SDS011;64127;51.488;5.462;2022-11-21T05:03:06;17.50;;;15.13;;
75429;SDS011;64127;51.488;5.462;2022-11-21T05:05:38;18.53;;;15.83;;
75429;SDS011;64127;51.488;5.462;2022-11-21T05:08:11;22.23;;;15.30;;
75429;SDS011;64127;51.488;5.462;2022-11-21T05:10:42;44.00;;;17.00;;
75429;SDS011;64127;51.488;5.462;2022-11-21T05:13:33;50.23;;;17.07;;
75429;SDS011;64127;51.488;5.462;2022-11-21T05:16:05;22.60;;;15.73;;
75429;SDS011;64127;51.488;5.462;2022-11-21T05:18:37;45.93;;;16.03;;
75429;SDS011;64127;51.488;5.462;2022-11-21T05:21:09;27.90;;;15.53;;
75429;SDS011;64127;51.488;5.462;2022-11-21T05:23:41;25.27;;;15.47;;
75429;SDS011;64127;51.488;5.462;2022-11-21T05:26:13;28.60;;;15.40;;
75429;SDS011;64127;51.488;5.462;2022-11-21T05:28:45;27.23;;;15.43;;
75429;SDS011;64127;51.488;5.462;2022-11-21T05:31:18;33.47;;;13.77;;
75429;SDS011;64127;51.488;5.462;2022-11-21T05:33:50;34.17;;;14.33;;
75429;SDS011;64127;51.488;5.462;2022-11-21T05:36:22;22.27;;;13.67;;
75429;SDS011;64127;51.488;5.462;2022-11-21T05:38:54;27.67;;;14.83;;
75429;SDS011;64127;51.488;5.462;2022-11-21T05:41:26;29.57;;;14.20;;
75429;SDS011;64127;51.488;5.462;2022-11-21T05:43:58;26.10;;;14.97;;
75429;SDS011;64127;51.488;5.462;2022-11-21T05:46:30;20.23;;;14.43;;
75429;SDS011;64127;51.488;5.462;2022-11-21T05:49:01;17.00;;;13.97;;
75429;SDS011;64127;51.488;5.462;2022-11-21T05:51:33;20.23;;;15.33;;
75429;SDS011;64127;51.488;5.462;2022-11-21T05:54:05;16.77;;;13.93;;
75429;SDS011;64127;51.488;5.462;2022-11-21T05:56:37;17.67;;;13.53;;
75429;SDS011;64127;51.488;5.462;2022-11-21T05:59:10;17.73;;;13.40;;
75429;SDS011;64127;51.488;5.462;2022-11-21T06:01:42;14.80;;;11.53;;
75429;SDS011;64127;51.488;5.462;2022-11-21T06:04:33;13.70;;;10.70;;
75429;SDS011;64127;51.488;5.462;2022-11-21T06:07:05;14.27;;;10.20;;
75429;SDS011;64127;51.488;5.462;2022-11-21T06:09:37;13.40;;;9.73;;
75429;SDS011;64127;51.488;5.462;2022-11-21T06:12:09;11.57;;;10.10;;
75429;SDS011;64127;51.488;5.462;2022-11-21T06:14:41;14.03;;;11.00;;
75429;SDS011;64127;51.488;5.462;2022-11-21T06:17:13;14.07;;;11.83;;
75429;SDS011;64127;51.488;5.462;2022-11-21T06:19:45;13.50;;;12.10;;
75429;SDS011;64127;51.488;5.462;2022-11-21T06:22:17;15.00;;;12.97;;
75429;SDS011;64127;51.488;5.462;2022-11-21T06:24:49;14.07;;;12.37;;
75429;SDS011;64127;51.488;5.462;2022-11-21T06:27:21;16.77;;;13.30;;
75429;SDS011;64127;51.488;5.462;2022-11-21T06:29:53;16.83;;;13.17;;
75429;SDS011;64127;51.488;5.462;2022-11-21T06:32:25;14.97;;;12.77;;
75429;SDS011;64127;51.488;5.462;2022-11-21T06:34:57;15.47;;;13.80;;
75429;SDS011;64127;51.488;5.462;2022-11-21T06:37:29;16.03;;;13.80;;
75429;SDS011;64127;51.488;5.462;2022-11-21T06:40:01;15.90;;;14.23;;
75429;SDS011;64127;51.488;5.462;2022-11-21T06:42:33;17.23;;;13.93;;
75429;SDS011;64127;51.488;5.462;2022-11-21T06:45:05;16.00;;;14.17;;
75429;SDS011;64127;51.488;5.462;2022-11-21T06:47:38;16.43;;;13.43;;
75429;SDS011;64127;51.488;5.462;2022-11-21T06:50:10;15.70;;;14.10;;
75429;SDS011;64127;51.488;5.462;2022-11-21T06:52:41;19.37;;;14.20;;
75429;SDS011;64127;51.488;5.462;2022-11-21T06:55:13;15.97;;;13.77;;
75429;SDS011;64127;51.488;5.462;2022-11-21T06:57:45;15.67;;;13.73;;
75429;SDS011;64127;51.488;5.462;2022-11-21T07:00:17;19.77;;;17.83;;
75429;SDS011;64127;51.488;5.462;2022-11-21T07:02:51;18.63;;;15.93;;
75429;SDS011;64127;51.488;5.462;2022-11-21T07:05:23;15.27;;;13.70;;
75429;SDS011;64127;51.488;5.462;2022-11-21T07:07:58;14.70;;;13.20;;
75429;SDS011;64127;51.488;5.462;2022-11-21T07:10:31;15.13;;;13.47;;
75429;SDS011;64127;51.488;5.462;2022-11-21T07:13:03;15.07;;;12.73;;
75429;SDS011;64127;51.488;5.462;2022-11-21T07:15:54;15.10;;;12.70;;
75429;SDS011;64127;51.488;5.462;2022-11-21T07:18:32;13.43;;;12.13;;
75429;SDS011;64127;51.488;5.462;2022-11-21T07:21:06;13.50;;;11.97;;
75429;SDS011;64127;51.488;5.462;2022-11-21T07:23:39;13.90;;;12.33;;
75429;SDS011;64127;51.488;5.462;2022-11-21T07:26:11;13.47;;;12.13;;
75429;SDS011;64127;51.488;5.462;2022-11-21T07:28:43;15.40;;;12.43;;
75429;SDS011;64127;51.488;5.462;2022-11-21T07:31:15;14.83;;;11.83;;
75429;SDS011;64127;51.488;5.462;2022-11-21T07:33:47;13.77;;;11.57;;
75429;SDS011;64127;51.488;5.462;2022-11-21T07:36:19;12.50;;;11.20;;
75429;SDS011;64127;51.488;5.462;2022-11-21T07:38:51;14.40;;;11.27;;
75429;SDS011;64127;51.488;5.462;2022-11-21T07:41:23;14.73;;;10.83;;
75429;SDS011;64127;51.488;5.462;2022-11-21T07:43:55;13.70;;;10.87;;
75429;SDS011;64127;51.488;5.462;2022-11-21T07:46:27;14.87;;;11.00;;
75429;SDS011;64127;51.488;5.462;2022-11-21T07:48:59;11.57;;;9.67;;
75429;SDS011;64127;51.488;5.462;2022-11-21T07:51:34;12.37;;;10.13;;
75429;SDS011;64127;51.488;5.462;2022-11-21T07:54:06;13.20;;;9.50;;
75429;SDS011;64127;51.488;5.462;2022-11-21T07:56:37;10.03;;;8.63;;
75429;SDS011;64127;51.488;5.462;2022-11-21T07:59:09;9.57;;;8.67;;
75429;SDS011;64127;51.488;5.462;2022-11-21T08:01:41;12.73;;;8.57;;
75429;SDS011;64127;51.488;5.462;2022-11-21T08:04:15;13.87;;;8.57;;
75429;SDS011;64127;51.488;5.462;2022-11-21T08:06:49;9.00;;;8.10;;
75429;SDS011;64127;51.488;5.462;2022-11-21T08:09:21;11.03;;;7.93;;
75429;SDS011;64127;51.488;5.462;2022-11-21T08:11:53;9.27;;;7.17;;
75429;SDS011;64127;51.488;5.462;2022-11-21T08:14:25;11.43;;;7.77;;
75429;SDS011;64127;51.488;5.462;2022-11-21T08:16:57;11.27;;;7.10;;
75429;SDS011;64127;51.488;5.462;2022-11-21T08:19:29;8.57;;;6.97;;
75429;SDS011;64127;51.488;5.462;2022-11-21T08:22:01;8.90;;;6.83;;
75429;SDS011;64127;51.488;5.462;2022-11-21T08:24:33;8.10;;;6.63;;
75429;SDS011;64127;51.488;5.462;2022-11-21T08:27:05;9.30;;;6.67;;
75429;SDS011;64127;51.488;5.462;2022-11-21T08:29:37;9.03;;;6.50;;
75429;SDS011;64127;51.488;5.462;2022-11-21T08:32:08;9.33;;;6.17;;
75429;SDS011;64127;51.488;5.462;2022-11-21T08:34:40;8.47;;;6.13;;
75429;SDS011;64127;51.488;5.462;2022-11-21T08:37:12;8.27;;;5.10;;
75429;SDS011;64127;51.488;5.462;2022-11-21T08:39:44;5.77;;;4.80;;
75429;SDS011;64127;51.488;5.462;2022-11-21T08:42:16;10.83;;;5.27;;
75429;SDS011;64127;51.488;5.462;2022-11-21T08:44:49;6.53;;;5.00;;
75429;SDS011;64127;51.488;5.462;2022-11-21T08:47:21;5.63;;;4.33;;
75429;SDS011;64127;51.488;5.462;2022-11-21T08:49:53;7.67;;;4.80;;
75429;SDS011;64127;51.488;5.462;2022-11-21T08:52:25;7.97;;;4.80;;
75429;SDS011;64127;51.488;5.462;2022-11-21T08:54:57;8.53;;;4.80;;
75429;SDS011;64127;51.488;5.462;2022-11-21T08:57:28;8.43;;;4.73;;
75429;SDS011;64127;51.488;5.462;2022-11-21T09:00:02;7.97;;;4.60;;
75429;SDS011;64127;51.488;5.462;2022-11-21T09:02:35;9.33;;;4.40;;
75429;SDS011;64127;51.488;5.462;2022-11-21T09:05:07;8.43;;;4.23;;
75429;SDS011;64127;51.488;5.462;2022-11-21T09:07:39;7.97;;;4.73;;
75429;SDS011;64127;51.488;5.462;2022-11-21T09:10:12;7.10;;;4.73;;
75429;SDS011;64127;51.488;5.462;2022-11-21T09:12:44;8.37;;;4.27;;
75429;SDS011;64127;51.488;5.462;2022-11-21T09:15:16;8.77;;;4.70;;
75429;SDS011;64127;51.488;5.462;2022-11-21T09:18:07;9.10;;;4.50;;
75429;SDS011;64127;51.488;5.462;2022-11-21T09:20:41;6.17;;;3.93;;
75429;SDS011;64127;51.488;5.462;2022-11-21T09:23:15;6.60;;;4.53;;
75429;SDS011;64127;51.488;5.462;2022-11-21T09:25:47;9.93;;;4.50;;
75429;SDS011;64127;51.488;5.462;2022-11-21T09:28:19;8.13;;;3.83;;
75429;SDS011;64127;51.488;5.462;2022-11-21T09:30:51;7.00;;;4.10;;
75429;SDS011;64127;51.488;5.462;2022-11-21T09:33:23;4.87;;;3.70;;
75429;SDS011;64127;51.488;5.462;2022-11-21T09:35:58;6.03;;;3.33;;
75429;SDS011;64127;51.488;5.462;2022-11-21T09:38:31;7.57;;;3.63;;
75429;SDS011;64127;51.488;5.462;2022-11-21T09:47:27;8.03;;;3.77;;
75429;SDS011;64127;51.488;5.462;2022-11-21T09:50:12;5.97;;;3.30;;
75429;SDS011;64127;51.488;5.462;2022-11-21T09:53:00;6.97;;;3.37;;
75429;SDS011;64127;51.488;5.462;2022-11-21T10:01:42;6.93;;;3.50;;
75429;SDS011;64127;51.488;5.462;2022-11-21T10:04:14;6.13;;;3.50;;
75429;SDS011;64127;51.488;5.462;2022-11-21T10:10:11;6.20;;;3.40;;
75429;SDS011;64127;51.488;5.462;2022-11-21T10:16:50;5.77;;;3.03;;
75429;SDS011;64127;51.488;5.462;2022-11-21T10:22:54;6.97;;;3.47;;
75429;SDS011;64127;51.488;5.462;2022-11-21T10:25:56;5.63;;;3.50;;
75429;SDS011;64127;51.488;5.462;2022-11-21T10:31:25;19.83;;;4.57;;
75429;SDS011;64127;51.488;5.462;2022-11-21T10:34:17;9.03;;;3.67;;
75429;SDS011;64127;51.488;5.462;2022-11-21T10:36:57;9.30;;;3.70;;
75429;SDS011;64127;51.488;5.462;2022-11-21T10:39:45;8.83;;;3.80;;
75429;SDS011;64127;51.488;5.462;2022-11-21T10:42:29;6.57;;;4.07;;
75429;SDS011;64127;51.488;5.462;2022-11-21T10:45:10;8.37;;;4.20;;
75429;SDS011;64127;51.488;5.462;2022-11-21T10:47:49;7.07;;;4.20;;
75429;SDS011;64127;51.488;5.462;2022-11-21T10:56:14;10.27;;;4.27;;
75429;SDS011;64127;51.488;5.462;2022-11-21T10:58:52;8.03;;;3.93;;
75429;SDS011;64127;51.488;5.462;2022-11-21T11:01:28;9.43;;;4.00;;
75429;SDS011;64127;51.488;5.462;2022-11-21T11:07:20;7.03;;;3.70;;
75429;SDS011;64127;51.488;5.462;2022-11-21T11:10:14;5.20;;;3.23;;
75429;SDS011;64127;51.488;5.462;2022-11-21T11:12:58;6.73;;;3.83;;
75429;SDS011;64127;51.488;5.462;2022-11-21T11:19:00;7.10;;;3.50;;
75429;SDS011;64127;51.488;5.462;2022-11-21T11:21:45;5.90;;;3.40;;
75429;SDS011;64127;51.488;5.462;2022-11-21T11:24:20;4.63;;;2.93;;
75429;SDS011;64127;51.488;5.462;2022-11-21T11:26:59;6.43;;;3.00;;
75429;SDS011;64127;51.488;5.462;2022-11-21T11:29:33;9.17;;;3.20;;
75429;SDS011;64127;51.488;5.462;2022-11-21T11:32:21;5.13;;;3.13;;
75429;SDS011;64127;51.488;5.462;2022-11-21T11:34:57;7.40;;;3.57;;
75429;SDS011;64127;51.488;5.462;2022-11-21T11:37:47;6.03;;;3.40;;
75429;SDS011;64127;51.488;5.462;2022-11-21T11:40:41;5.17;;;3.03;;
75429;SDS011;64127;51.488;5.462;2022-11-21T11:46:21;6.10;;;2.57;;
75429;SDS011;64127;51.488;5.462;2022-11-21T11:52:31;6.40;;;2.40;;
75429;SDS011;64127;51.488;5.462;2022-11-21T11:55:25;6.93;;;3.00;;
75429;SDS011;64127;51.488;5.462;2022-11-21T11:58:17;6.03;;;2.70;;
75429;SDS011;64127;51.488;5.462;2022-11-21T12:01:05;5.00;;;2.43;;
75429;SDS011;64127;51.488;5.462;2022-11-21T12:07:00;5.07;;;2.57;;
75429;SDS011;64127;51.488;5.462;2022-11-21T12:10:03;5.17;;;2.40;;
75429;SDS011;64127;51.488;5.462;2022-11-21T12:12:37;6.03;;;2.47;;
75429;SDS011;64127;51.488;5.462;2022-11-21T12:15:21;4.50;;;2.20;;
75429;SDS011;64127;51.488;5.462;2022-11-21T12:24:06;7.83;;;2.13;;
75429;SDS011;64127;51.488;5.462;2022-11-21T12:30:01;3.83;;;2.00;;
75429;SDS011;64127;51.488;5.462;2022-11-21T12:33:05;5.03;;;2.10;;
75429;SDS011;64127;51.488;5.462;2022-11-21T12:48:05;3.87;;;1.73;;
75429;SDS011;64127;51.488;5.462;2022-11-21T13:01:00;4.93;;;2.03;;
75429;SDS011;64127;51.488;5.462;2022-11-21T13:06:39;3.90;;;1.83;;
75429;SDS011;64127;51.488;5.462;2022-11-21T13:09:16;6.40;;;2.13;;
75429;SDS011;64127;51.488;5.462;2022-11-21T13:11:54;6.23;;;2.27;;
75429;SDS011;64127;51.488;5.462;2022-11-21T13:14:34;7.80;;;2.43;;
75429;SDS011;64127;51.488;5.462;2022-11-21T13:17:28;4.87;;;2.23;;
75429;SDS011;64127;51.488;5.462;2022-11-21T13:20:31;4.63;;;2.07;;
75429;SDS011;64127;51.488;5.462;2022-11-21T13:29:11;5.17;;;2.50;;
75429;SDS011;64127;51.488;5.462;2022-11-21T13:31:44;3.60;;;2.20;;
75429;SDS011;64127;51.488;5.462;2022-11-21T13:37:03;5.40;;;2.57;;
75429;SDS011;64127;51.488;5.462;2022-11-21T13:39:36;6.23;;;2.50;;
75429;SDS011;64127;51.488;5.462;2022-11-21T13:42:09;6.37;;;2.50;;
75429;SDS011;64127;51.488;5.462;2022-11-21T13:45:35;5.57;;;2.47;;
75429;SDS011;64127;51.488;5.462;2022-11-21T13:48:16;5.50;;;2.77;;
75429;SDS011;64127;51.488;5.462;2022-11-21T14:05:53;5.43;;;3.00;;
75429;SDS011;64127;51.488;5.462;2022-11-21T14:08:38;6.17;;;2.80;;
75429;SDS011;64127;51.488;5.462;2022-11-21T14:11:20;6.83;;;2.63;;
75429;SDS011;64127;51.488;5.462;2022-11-21T14:14:07;5.10;;;2.77;;
75429;SDS011;64127;51.488;5.462;2022-11-21T14:16:42;4.53;;;2.47;;
75429;SDS011;64127;51.488;5.462;2022-11-21T14:19:21;7.27;;;2.97;;
75429;SDS011;64127;51.488;5.462;2022-11-21T14:21:53;4.83;;;2.67;;
75429;SDS011;64127;51.488;5.462;2022-11-21T14:24:25;6.20;;;3.10;;
75429;SDS011;64127;51.488;5.462;2022-11-21T14:26:58;6.63;;;3.40;;
75429;SDS011;64127;51.488;5.462;2022-11-21T14:29:38;7.13;;;3.50;;
75429;SDS011;64127;51.488;5.462;2022-11-21T14:32:14;5.77;;;3.80;;
75429;SDS011;64127;51.488;5.462;2022-11-21T14:34:46;6.13;;;3.10;;
75429;SDS011;64127;51.488;5.462;2022-11-21T14:37:18;6.30;;;2.80;;
75429;SDS011;64127;51.488;5.462;2022-11-21T14:39:51;6.60;;;3.13;;
75429;SDS011;64127;51.488;5.462;2022-11-21T14:42:33;5.07;;;2.90;;
75429;SDS011;64127;51.488;5.462;2022-11-21T14:45:12;6.97;;;2.87;;
75429;SDS011;64127;51.488;5.462;2022-11-21T14:47:50;5.30;;;3.27;;
75429;SDS011;64127;51.488;5.462;2022-11-21T14:50:28;5.73;;;2.90;;
75429;SDS011;64127;51.488;5.462;2022-11-21T14:53:04;5.03;;;3.17;;
75429;SDS011;64127;51.488;5.462;2022-11-21T14:55:36;6.13;;;3.30;;
75429;SDS011;64127;51.488;5.462;2022-11-21T14:58:12;7.20;;;4.43;;
75429;SDS011;64127;51.488;5.462;2022-11-21T15:01:05;6.07;;;3.20;;
75429;SDS011;64127;51.488;5.462;2022-11-21T15:03:54;5.17;;;2.97;;
75429;SDS011;64127;51.488;5.462;2022-11-21T15:06:44;6.63;;;3.60;;
75429;SDS011;64127;51.488;5.462;2022-11-21T15:09:17;4.67;;;3.00;;
75429;SDS011;64127;51.488;5.462;2022-11-21T15:12:10;7.17;;;3.40;;
75429;SDS011;64127;51.488;5.462;2022-11-21T15:14:51;7.47;;;3.60;;
75429;SDS011;64127;51.488;5.462;2022-11-21T15:17:28;7.10;;;3.60;;
75429;SDS011;64127;51.488;5.462;2022-11-21T15:20:03;7.47;;;3.83;;
75429;SDS011;64127;51.488;5.462;2022-11-21T15:22:42;6.43;;;3.47;;
75429;SDS011;64127;51.488;5.462;2022-11-21T15:25:18;7.70;;;3.70;;
75429;SDS011;64127;51.488;5.462;2022-11-21T15:30:33;9.17;;;4.57;;
75429;SDS011;64127;51.488;5.462;2022-11-21T15:33:08;6.63;;;3.20;;
75429;SDS011;64127;51.488;5.462;2022-11-21T15:35:52;7.43;;;2.97;;
75429;SDS011;64127;51.488;5.462;2022-11-21T15:38:29;7.83;;;3.70;;
75429;SDS011;64127;51.488;5.462;2022-11-21T15:46:23;6.07;;;3.27;;
75429;SDS011;64127;51.488;5.462;2022-11-21T15:51:54;6.47;;;2.97;;
75429;SDS011;64127;51.488;5.462;2022-11-21T15:54:41;6.30;;;2.93;;
75429;SDS011;64127;51.488;5.462;2022-11-21T15:57:13;4.90;;;2.77;;
75429;SDS011;64127;51.488;5.462;2022-11-21T15:59:47;6.13;;;2.87;;
75429;SDS011;64127;51.488;5.462;2022-11-21T16:02:19;4.17;;;2.87;;
75429;SDS011;64127;51.488;5.462;2022-11-21T16:04:51;6.77;;;3.10;;
75429;SDS011;64127;51.488;5.462;2022-11-21T16:07:23;7.53;;;2.90;;
75429;SDS011;64127;51.488;5.462;2022-11-21T16:09:55;7.17;;;3.20;;
75429;SDS011;64127;51.488;5.462;2022-11-21T16:12:27;6.37;;;3.07;;
75429;SDS011;64127;51.488;5.462;2022-11-21T16:14:59;6.10;;;3.20;;
75429;SDS011;64127;51.488;5.462;2022-11-21T16:17:32;4.87;;;2.70;;
75429;SDS011;64127;51.488;5.462;2022-11-21T16:20:04;5.37;;;3.13;;
75429;SDS011;64127;51.488;5.462;2022-11-21T16:22:36;6.37;;;2.57;;
75429;SDS011;64127;51.488;5.462;2022-11-21T16:25:15;5.83;;;2.80;;
75429;SDS011;64127;51.488;5.462;2022-11-21T16:27:48;5.53;;;2.80;;
75429;SDS011;64127;51.488;5.462;2022-11-21T16:30:20;7.50;;;2.70;;
75429;SDS011;64127;51.488;5.462;2022-11-21T16:32:52;6.83;;;2.73;;
75429;SDS011;64127;51.488;5.462;2022-11-21T16:35:25;6.07;;;2.77;;
75429;SDS011;64127;51.488;5.462;2022-11-21T16:37:57;4.97;;;2.50;;
75429;SDS011;64127;51.488;5.462;2022-11-21T16:40:29;6.10;;;2.60;;
75429;SDS011;64127;51.488;5.462;2022-11-21T16:43:08;3.93;;;2.50;;
75429;SDS011;64127;51.488;5.462;2022-11-21T16:45:42;6.27;;;2.77;;
75429;SDS011;64127;51.488;5.462;2022-11-21T16:48:14;5.67;;;2.47;;
75429;SDS011;64127;51.488;5.462;2022-11-21T16:50:47;5.47;;;2.73;;
75429;SDS011;64127;51.488;5.462;2022-11-21T16:53:20;9.00;;;2.97;;
75429;SDS011;64127;51.488;5.462;2022-11-21T16:55:58;6.77;;;3.20;;
75429;SDS011;64127;51.488;5.462;2022-11-21T16:58:31;4.53;;;3.03;;
75429;SDS011;64127;51.488;5.462;2022-11-21T17:01:10;7.20;;;3.27;;
75429;SDS011;64127;51.488;5.462;2022-11-21T17:03:48;5.23;;;2.80;;
75429;SDS011;64127;51.488;5.462;2022-11-21T17:06:22;5.20;;;3.10;;
75429;SDS011;64127;51.488;5.462;2022-11-21T17:08:59;4.33;;;2.83;;
75429;SDS011;64127;51.488;5.462;2022-11-21T17:11:32;7.03;;;3.43;;
75429;SDS011;64127;51.488;5.462;2022-11-21T17:14:04;5.90;;;2.97;;
75429;SDS011;64127;51.488;5.462;2022-11-21T17:16:37;5.17;;;3.10;;
75429;SDS011;64127;51.488;5.462;2022-11-21T17:19:12;6.00;;;3.13;;
75429;SDS011;64127;51.488;5.462;2022-11-21T17:21:46;5.53;;;3.07;;
75429;SDS011;64127;51.488;5.462;2022-11-21T17:24:18;5.95;;;3.50;;